sensor_id;sensor_type;location;lat;lon;timestamp;P1;P2;P0
29460;PMS7003;16428;47.836;35.106;2023-02-21T00:02:27;8.50;6.25;5.00
29460;PMS7003;16428;47.836;35.106;2023-02-21T00:05:13;9.00;9.00;7.25
29460;PMS7003;16428;47.836;35.106;2023-02-21T00:07:59;0.50;0.50;0.00
29460;PMS7003;16428;47.836;35.106;2023-02-21T00:10:45;6.00;6.00;3.50
29460;PMS7003;16428;47.836;35.106;2023-02-21T00:13:35;7.75;6.00;5.75
29460;PMS7003;16428;47.836;35.106;2023-02-21T00:16:22;7.00;5.00;3.25
29460;PMS7003;16428;47.836;35.106;2023-02-21T00:19:09;5.25;5.25;5.00
29460;PMS7003;16428;47.836;35.106;2023-02-21T00:21:55;6.50;6.50;5.00
29460;PMS7003;16428;47.836;35.106;2023-02-21T00:24:43;7.25;7.25;6.00
29460;PMS7003;16428;47.836;35.106;2023-02-21T00:27:29;9.50;9.50;7.75
29460;PMS7003;16428;47.836;35.106;2023-02-21T00:30:15;13.75;10.50;9.25
29460;PMS7003;16428;47.836;35.106;2023-02-21T00:33:01;8.50;8.50;6.75
29460;PMS7003;16428;47.836;35.106;2023-02-21T00:35:49;5.25;5.25;4.50
29460;PMS7003;16428;47.836;35.106;2023-02-21T00:38:36;9.00;7.75;6.00
29460;PMS7003;16428;47.836;35.106;2023-02-21T00:41:22;10.00;9.00;6.25
29460;PMS7003;16428;47.836;35.106;2023-02-21T00:44:09;8.00;8.00;6.00
29460;PMS7003;16428;47.836;35.106;2023-02-21T00:46:55;10.75;8.50;5.50
29460;PMS7003;16428;47.836;35.106;2023-02-21T00:49:41;13.00;7.75;6.00
29460;PMS7003;16428;47.836;35.106;2023-02-21T00:52:27;9.75;9.75;8.75
29460;PMS7003;16428;47.836;35.106;2023-02-21T00:55:14;4.50;4.50;4.50
29460;PMS7003;16428;47.836;35.106;2023-02-21T00:58:00;8.25;8.25;6.75
29460;PMS7003;16428;47.836;35.106;2023-02-21T01:00:46;7.25;6.00;6.00
29460;PMS7003;16428;47.836;35.106;2023-02-21T01:03:32;4.25;4.25;2.50
29460;PMS7003;16428;47.836;35.106;2023-02-21T01:06:18;9.50;9.25;8.00
29460;PMS7003;16428;47.836;35.106;2023-02-21T01:09:04;3.25;1.50;1.00
29460;PMS7003;16428;47.836;35.106;2023-02-21T01:11:50;3.25;3.25;2.00
29460;PMS7003;16428;47.836;35.106;2023-02-21T01:14:36;12.75;12.25;8.75
29460;PMS7003;16428;47.836;35.106;2023-02-21T01:17:22;8.50;6.50;5.50
29460;PMS7003;16428;47.836;35.106;2023-02-21T01:20:08;6.00;6.00;5.00
29460;PMS7003;16428;47.836;35.106;2023-02-21T01:22:55;9.25;9.25;8.50
29460;PMS7003;16428;47.836;35.106;2023-02-21T01:25:42;9.25;9.25;7.75
29460;PMS7003;16428;47.836;35.106;2023-02-21T01:28:28;4.50;4.25;4.25
29460;PMS7003;16428;47.836;35.106;2023-02-21T01:31:20;5.00;5.00;4.25
29460;PMS7003;16428;47.836;35.106;2023-02-21T01:34:06;2.00;2.00;1.00
29460;PMS7003;16428;47.836;35.106;2023-02-21T01:36:54;11.00;9.50;6.00
29460;PMS7003;16428;47.836;35.106;2023-02-21T01:39:40;8.00;8.00;6.00
29460;PMS7003;16428;47.836;35.106;2023-02-21T01:42:26;5.75;5.75;5.75
29460;PMS7003;16428;47.836;35.106;2023-02-21T01:45:33;2.00;2.00;1.00
29460;PMS7003;16428;47.836;35.106;2023-02-21T01:48:27;6.50;4.00;4.00
29460;PMS7003;16428;47.836;35.106;2023-02-21T01:51:16;11.00;9.50;9.00
29460;PMS7003;16428;47.836;35.106;2023-02-21T01:54:03;6.50;6.00;5.50
29460;PMS7003;16428;47.836;35.106;2023-02-21T01:56:52;11.00;8.25;6.00
29460;PMS7003;16428;47.836;35.106;2023-02-21T01:59:40;12.75;8.50;7.00
29460;PMS7003;16428;47.836;35.106;2023-02-21T02:02:32;7.25;5.00;4.00
29460;PMS7003;16428;47.836;35.106;2023-02-21T02:05:25;1.75;1.75;1.00
29460;PMS7003;16428;47.836;35.106;2023-02-21T02:08:15;11.25;8.00;4.50
29460;PMS7003;16428;47.836;35.106;2023-02-21T02:11:17;7.75;7.75;6.00
29460;PMS7003;16428;47.836;35.106;2023-02-21T02:36:26;8.25;8.25;6.50
29460;PMS7003;16428;47.836;35.106;2023-02-21T02:39:04;16.50;13.25;10.00
29460;PMS7003;16428;47.836;35.106;2023-02-21T02:41:46;13.00;12.50;9.75
29460;PMS7003;16428;47.836;35.106;2023-02-21T02:44:27;14.00;14.00;12.00
29460;PMS7003;16428;47.836;35.106;2023-02-21T02:47:00;16.75;16.75;13.50
29460;PMS7003;16428;47.836;35.106;2023-02-21T02:49:31;9.50;9.50;6.25
29460;PMS7003;16428;47.836;35.106;2023-02-21T02:52:06;17.50;17.50;13.50
29460;PMS7003;16428;47.836;35.106;2023-02-21T02:54:35;16.50;14.50;13.50
29460;PMS7003;16428;47.836;35.106;2023-02-21T02:57:03;20.00;17.00;12.75
29460;PMS7003;16428;47.836;35.106;2023-02-21T02:59:38;18.50;18.50;14.50
29460;PMS7003;16428;47.836;35.106;2023-02-21T03:02:25;12.50;12.50;10.75
29460;PMS7003;16428;47.836;35.106;2023-02-21T03:08:00;14.50;13.00;10.75
29460;PMS7003;16428;47.836;35.106;2023-02-21T03:10:46;13.75;11.25;8.00
29460;PMS7003;16428;47.836;35.106;2023-02-21T03:16:32;16.25;13.50;10.75
29460;PMS7003;16428;47.836;35.106;2023-02-21T03:21:42;19.75;18.50;13.75
29460;PMS7003;16428;47.836;35.106;2023-02-21T03:24:16;16.75;12.75;10.50
29460;PMS7003;16428;47.836;35.106;2023-02-21T03:26:47;15.75;14.00;12.00
29460;PMS7003;16428;47.836;35.106;2023-02-21T03:29:19;16.00;15.00;11.00
29460;PMS7003;16428;47.836;35.106;2023-02-21T03:31:54;12.50;12.50;8.25
29460;PMS7003;16428;47.836;35.106;2023-02-21T03:34:26;8.75;8.75;6.75
29460;PMS7003;16428;47.836;35.106;2023-02-21T03:36:54;17.50;13.75;11.25
29460;PMS7003;16428;47.836;35.106;2023-02-21T03:39:22;18.75;13.75;8.50
29460;PMS7003;16428;47.836;35.106;2023-02-21T03:41:49;12.75;12.75;10.25
29460;PMS7003;16428;47.836;35.106;2023-02-21T03:44:16;16.75;14.50;10.25
29460;PMS7003;16428;47.836;35.106;2023-02-21T03:46:44;15.50;12.75;10.50
29460;PMS7003;16428;47.836;35.106;2023-02-21T03:49:11;11.25;7.50;6.00
29460;PMS7003;16428;47.836;35.106;2023-02-21T03:51:39;17.00;14.50;11.00
29460;PMS7003;16428;47.836;35.106;2023-02-21T03:54:06;16.50;14.75;11.50
29460;PMS7003;16428;47.836;35.106;2023-02-21T03:56:34;22.50;15.25;10.75
29460;PMS7003;16428;47.836;35.106;2023-02-21T03:59:08;17.00;14.50;12.00
29460;PMS7003;16428;47.836;35.106;2023-02-21T04:01:36;22.50;19.50;15.00
29460;PMS7003;16428;47.836;35.106;2023-02-21T04:04:06;19.50;16.50;13.25
29460;PMS7003;16428;47.836;35.106;2023-02-21T04:06:34;14.25;12.50;10.25
29460;PMS7003;16428;47.836;35.106;2023-02-21T04:09:02;13.75;12.25;11.00
29460;PMS7003;16428;47.836;35.106;2023-02-21T04:11:30;18.25;14.25;10.25
29460;PMS7003;16428;47.836;35.106;2023-02-21T04:13:58;17.75;13.00;11.50
29460;PMS7003;16428;47.836;35.106;2023-02-21T04:16:26;15.75;12.75;10.50
29460;PMS7003;16428;47.836;35.106;2023-02-21T04:18:53;12.50;12.50;10.00
29460;PMS7003;16428;47.836;35.106;2023-02-21T04:21:24;8.25;6.50;6.00
29460;PMS7003;16428;47.836;35.106;2023-02-21T04:23:51;17.25;11.00;8.50
29460;PMS7003;16428;47.836;35.106;2023-02-21T04:26:19;14.00;14.00;12.25
29460;PMS7003;16428;47.836;35.106;2023-02-21T04:28:46;16.25;11.25;8.00
29460;PMS7003;16428;47.836;35.106;2023-02-21T04:31:15;11.75;10.00;7.00
29460;PMS7003;16428;47.836;35.106;2023-02-21T04:33:44;11.50;11.50;9.50
29460;PMS7003;16428;47.836;35.106;2023-02-21T04:36:11;12.50;12.50;9.25
29460;PMS7003;16428;47.836;35.106;2023-02-21T04:38:39;10.50;9.75;8.25
29460;PMS7003;16428;47.836;35.106;2023-02-21T04:41:06;10.75;7.75;6.25
29460;PMS7003;16428;47.836;35.106;2023-02-21T04:43:34;16.00;10.00;7.50
29460;PMS7003;16428;47.836;35.106;2023-02-21T04:46:01;11.25;10.75;9.50
29460;PMS7003;16428;47.836;35.106;2023-02-21T04:48:31;15.50;10.50;7.75
29460;PMS7003;16428;47.836;35.106;2023-02-21T04:50:58;13.00;13.00;10.75
29460;PMS7003;16428;47.836;35.106;2023-02-21T04:53:40;5.75;2.25;1.75
29460;PMS7003;16428;47.836;35.106;2023-02-21T04:56:08;12.50;10.25;7.00
29460;PMS7003;16428;47.836;35.106;2023-02-21T04:58:38;11.50;9.25;7.75
29460;PMS7003;16428;47.836;35.106;2023-02-21T05:01:12;7.75;7.25;6.25
29460;PMS7003;16428;47.836;35.106;2023-02-21T05:03:41;10.00;10.00;7.50
29460;PMS7003;16428;47.836;35.106;2023-02-21T05:06:09;6.75;6.75;5.25
29460;PMS7003;16428;47.836;35.106;2023-02-21T05:08:43;6.00;6.00;5.50
29460;PMS7003;16428;47.836;35.106;2023-02-21T05:11:10;8.00;8.00;6.00
29460;PMS7003;16428;47.836;35.106;2023-02-21T05:13:39;6.75;6.75;6.00
29460;PMS7003;16428;47.836;35.106;2023-02-21T05:16:06;12.75;12.00;8.25
29460;PMS7003;16428;47.836;35.106;2023-02-21T05:18:34;12.25;11.00;9.00
29460;PMS7003;16428;47.836;35.106;2023-02-21T05:21:06;8.75;8.75;7.50
29460;PMS7003;16428;47.836;35.106;2023-02-21T05:23:37;10.50;10.25;7.00
29460;PMS7003;16428;47.836;35.106;2023-02-21T05:26:10;12.00;10.25;9.75
29460;PMS7003;16428;47.836;35.106;2023-02-21T05:28:39;12.00;11.50;7.75
29460;PMS7003;16428;47.836;35.106;2023-02-21T05:31:07;8.00;6.75;5.00
29460;PMS7003;16428;47.836;35.106;2023-02-21T05:33:35;10.50;9.75;7.75
29460;PMS7003;16428;47.836;35.106;2023-02-21T05:36:02;10.50;10.50;8.00
29460;PMS7003;16428;47.836;35.106;2023-02-21T05:38:30;8.25;6.25;3.00
29460;PMS7003;16428;47.836;35.106;2023-02-21T05:40:58;8.75;8.75;7.50
29460;PMS7003;16428;47.836;35.106;2023-02-21T05:43:25;6.00;3.00;2.00
29460;PMS7003;16428;47.836;35.106;2023-02-21T05:45:55;14.50;10.00;8.00
29460;PMS7003;16428;47.836;35.106;2023-02-21T05:48:23;12.25;11.75;8.25
29460;PMS7003;16428;47.836;35.106;2023-02-21T05:50:50;13.75;11.25;8.25
29460;PMS7003;16428;47.836;35.106;2023-02-21T05:53:18;8.75;7.25;6.75
29460;PMS7003;16428;47.836;35.106;2023-02-21T05:55:45;7.75;7.75;6.00
29460;PMS7003;16428;47.836;35.106;2023-02-21T05:58:13;9.50;9.50;8.75
29460;PMS7003;16428;47.836;35.106;2023-02-21T06:00:40;7.50;7.50;6.50
29460;PMS7003;16428;47.836;35.106;2023-02-21T06:03:07;12.00;12.00;9.25
29460;PMS7003;16428;47.836;35.106;2023-02-21T06:05:37;13.50;12.25;9.50
29460;PMS7003;16428;47.836;35.106;2023-02-21T06:08:05;10.75;6.25;5.50
29460;PMS7003;16428;47.836;35.106;2023-02-21T06:10:36;1.00;1.00;1.00
29460;PMS7003;16428;47.836;35.106;2023-02-21T06:13:04;3.25;3.00;2.00
29460;PMS7003;16428;47.836;35.106;2023-02-21T06:15:31;9.50;9.50;8.00
29460;PMS7003;16428;47.836;35.106;2023-02-21T06:18:00;6.50;4.00;2.50
29460;PMS7003;16428;47.836;35.106;2023-02-21T06:20:34;10.25;7.50;6.50
29460;PMS7003;16428;47.836;35.106;2023-02-21T06:23:02;9.50;9.50;7.75
29460;PMS7003;16428;47.836;35.106;2023-02-21T06:25:30;11.25;8.25;6.50
29460;PMS7003;16428;47.836;35.106;2023-02-21T06:27:57;13.50;13.50;11.75
29460;PMS7003;16428;47.836;35.106;2023-02-21T06:30:25;6.00;6.00;3.50
29460;PMS7003;16428;47.836;35.106;2023-02-21T06:32:53;8.25;8.25;8.00
29460;PMS7003;16428;47.836;35.106;2023-02-21T06:35:21;12.00;9.25;6.50
29460;PMS7003;16428;47.836;35.106;2023-02-21T06:37:48;11.00;10.00;7.50
29460;PMS7003;16428;47.836;35.106;2023-02-21T06:40:16;13.00;12.75;9.00
29460;PMS7003;16428;47.836;35.106;2023-02-21T06:42:44;8.25;8.25;7.00
29460;PMS7003;16428;47.836;35.106;2023-02-21T06:45:12;9.50;9.50;7.00
29460;PMS7003;16428;47.836;35.106;2023-02-21T06:47:40;9.75;9.75;8.00
29460;PMS7003;16428;47.836;35.106;2023-02-21T06:50:07;8.50;8.50;7.50
29460;PMS7003;16428;47.836;35.106;2023-02-21T06:52:36;11.75;10.50;9.00
29460;PMS7003;16428;47.836;35.106;2023-02-21T06:55:03;11.00;7.25;7.00
29460;PMS7003;16428;47.836;35.106;2023-02-21T06:57:32;5.00;5.00;4.50
29460;PMS7003;16428;47.836;35.106;2023-02-21T06:59:59;11.75;8.75;8.00
29460;PMS7003;16428;47.836;35.106;2023-02-21T07:02:27;9.50;8.50;7.75
29460;PMS7003;16428;47.836;35.106;2023-02-21T07:04:54;8.00;8.00;7.00
29460;PMS7003;16428;47.836;35.106;2023-02-21T07:07:22;8.00;8.00;6.25
29460;PMS7003;16428;47.836;35.106;2023-02-21T07:09:49;11.00;11.00;9.00
29460;PMS7003;16428;47.836;35.106;2023-02-21T07:12:17;14.75;12.50;11.50
29460;PMS7003;16428;47.836;35.106;2023-02-21T07:14:45;11.50;11.50;9.75
29460;PMS7003;16428;47.836;35.106;2023-02-21T07:17:18;19.25;13.25;9.25
29460;PMS7003;16428;47.836;35.106;2023-02-21T07:19:46;14.00;10.50;7.75
29460;PMS7003;16428;47.836;35.106;2023-02-21T07:22:13;8.75;8.75;7.00
29460;PMS7003;16428;47.836;35.106;2023-02-21T07:24:41;11.00;11.00;9.75
29460;PMS7003;16428;47.836;35.106;2023-02-21T07:27:09;11.25;10.00;8.75
29460;PMS7003;16428;47.836;35.106;2023-02-21T07:29:36;14.50;14.50;11.75
29460;PMS7003;16428;47.836;35.106;2023-02-21T07:32:04;16.00;16.00;12.50
29460;PMS7003;16428;47.836;35.106;2023-02-21T07:34:32;17.25;9.75;8.75
29460;PMS7003;16428;47.836;35.106;2023-02-21T07:36:59;12.25;12.25;10.00
29460;PMS7003;16428;47.836;35.106;2023-02-21T07:39:28;10.00;10.00;9.00
29460;PMS7003;16428;47.836;35.106;2023-02-21T07:41:55;12.00;11.25;9.25
29460;PMS7003;16428;47.836;35.106;2023-02-21T07:44:23;15.00;15.00;13.50
29460;PMS7003;16428;47.836;35.106;2023-02-21T07:46:50;20.00;15.50;13.25
29460;PMS7003;16428;47.836;35.106;2023-02-21T07:49:18;14.75;14.75;11.75
29460;PMS7003;16428;47.836;35.106;2023-02-21T07:51:45;15.00;15.00;11.25
29460;PMS7003;16428;47.836;35.106;2023-02-21T07:54:14;15.25;15.25;14.25
29460;PMS7003;16428;47.836;35.106;2023-02-21T07:56:45;20.25;15.75;13.75
29460;PMS7003;16428;47.836;35.106;2023-02-21T07:59:14;16.50;14.75;13.50
29460;PMS7003;16428;47.836;35.106;2023-02-21T08:01:42;19.50;16.75;12.50
29460;PMS7003;16428;47.836;35.106;2023-02-21T08:04:09;17.00;14.50;12.50
29460;PMS7003;16428;47.836;35.106;2023-02-21T08:06:41;12.50;12.50;9.00
29460;PMS7003;16428;47.836;35.106;2023-02-21T08:09:09;12.00;12.00;10.50
29460;PMS7003;16428;47.836;35.106;2023-02-21T08:11:36;11.00;6.00;5.50
29460;PMS7003;16428;47.836;35.106;2023-02-21T08:14:06;4.00;3.00;2.00
29460;PMS7003;16428;47.836;35.106;2023-02-21T08:16:34;9.25;9.25;8.00
29460;PMS7003;16428;47.836;35.106;2023-02-21T08:19:03;6.75;6.75;5.50
29460;PMS7003;16428;47.836;35.106;2023-02-21T08:21:32;9.25;7.75;6.00
29460;PMS7003;16428;47.836;35.106;2023-02-21T08:23:59;3.50;3.50;3.00
29460;PMS7003;16428;47.836;35.106;2023-02-21T08:26:28;6.50;6.50;5.50
29460;PMS7003;16428;47.836;35.106;2023-02-21T08:28:56;10.25;6.00;4.00
29460;PMS7003;16428;47.836;35.106;2023-02-21T08:31:23;3.00;3.00;3.00
29460;PMS7003;16428;47.836;35.106;2023-02-21T08:33:52;2.50;2.50;2.00
29460;PMS7003;16428;47.836;35.106;2023-02-21T08:36:20;2.00;2.00;1.00
29460;PMS7003;16428;47.836;35.106;2023-02-21T08:38:50;3.25;3.25;2.00
29460;PMS7003;16428;47.836;35.106;2023-02-21T08:41:19;4.50;2.00;1.75
29460;PMS7003;16428;47.836;35.106;2023-02-21T08:43:47;3.00;2.25;2.00
29460;PMS7003;16428;47.836;35.106;2023-02-21T08:46:14;2.50;2.50;2.00
29460;PMS7003;16428;47.836;35.106;2023-02-21T08:48:42;1.00;1.00;1.00
29460;PMS7003;16428;47.836;35.106;2023-02-21T08:51:09;2.50;2.50;2.50
29460;PMS7003;16428;47.836;35.106;2023-02-21T08:53:37;0.75;0.75;0.75
29460;PMS7003;16428;47.836;35.106;2023-02-21T08:56:05;2.25;2.25;2.25
29460;PMS7003;16428;47.836;35.106;2023-02-21T08:58:34;3.50;2.25;2.25
29460;PMS7003;16428;47.836;35.106;2023-02-21T09:01:04;3.25;3.00;2.75
29460;PMS7003;16428;47.836;35.106;2023-02-21T09:03:33;3.00;1.00;1.00
29460;PMS7003;16428;47.836;35.106;2023-02-21T09:06:00;5.00;2.00;1.75
29460;PMS7003;16428;47.836;35.106;2023-02-21T09:08:33;3.00;3.00;2.25
29460;PMS7003;16428;47.836;35.106;2023-02-21T09:11:02;1.50;1.50;1.25
29460;PMS7003;16428;47.836;35.106;2023-02-21T09:13:30;1.00;1.00;1.00
29460;PMS7003;16428;47.836;35.106;2023-02-21T09:15:59;1.50;1.50;1.50
29460;PMS7003;16428;47.836;35.106;2023-02-21T09:18:29;2.00;2.00;1.50
29460;PMS7003;16428;47.836;35.106;2023-02-21T09:20:57;1.25;1.25;1.00
29460;PMS7003;16428;47.836;35.106;2023-02-21T09:23:26;4.00;1.00;1.00
29460;PMS7003;16428;47.836;35.106;2023-02-21T09:25:55;2.50;1.50;1.50
29460;PMS7003;16428;47.836;35.106;2023-02-21T09:28:23;3.00;1.00;0.33
29460;PMS7003;16428;47.836;35.106;2023-02-21T09:30:51;2.00;2.00;1.25
29460;PMS7003;16428;47.836;35.106;2023-02-21T09:33:19;2.00;2.00;2.00
29460;PMS7003;16428;47.836;35.106;2023-02-21T09:35:48;5.50;2.00;2.00
29460;PMS7003;16428;47.836;35.106;2023-02-21T09:38:16;2.00;2.00;2.00
29460;PMS7003;16428;47.836;35.106;2023-02-21T09:40:44;2.00;2.00;1.00
29460;PMS7003;16428;47.836;35.106;2023-02-21T09:43:37;2.00;2.00;1.67
29460;PMS7003;16428;47.836;35.106;2023-02-21T09:46:15;1.00;1.00;1.00
29460;PMS7003;16428;47.836;35.106;2023-02-21T09:48:48;2.00;2.00;1.00
29460;PMS7003;16428;47.836;35.106;2023-02-21T09:51:16;1.25;1.25;1.25
29460;PMS7003;16428;47.836;35.106;2023-02-21T09:53:45;1.00;1.00;0.67
29460;PMS7003;16428;47.836;35.106;2023-02-21T09:56:20;2.00;2.00;2.00
29460;PMS7003;16428;47.836;35.106;2023-02-21T09:58:56;1.00;1.00;1.00
29460;PMS7003;16428;47.836;35.106;2023-02-21T10:07:01;4.00;2.25;2.00
29460;PMS7003;16428;47.836;35.106;2023-02-21T10:20:57;1.50;1.50;1.50
29460;PMS7003;16428;47.836;35.106;2023-02-21T10:23:38;1.00;1.00;1.00
29460;PMS7003;16428;47.836;35.106;2023-02-21T10:26:10;0.00;0.00;0.00
29460;PMS7003;16428;47.836;35.106;2023-02-21T10:28:42;1.00;1.00;1.00
29460;PMS7003;16428;47.836;35.106;2023-02-21T10:31:15;0.50;0.50;0.50
29460;PMS7003;16428;47.836;35.106;2023-02-21T10:33:50;1.00;1.00;1.00
29460;PMS7003;16428;47.836;35.106;2023-02-21T10:36:18;1.00;1.00;0.67
29460;PMS7003;16428;47.836;35.106;2023-02-21T10:41:37;1.00;1.00;0.00
29460;PMS7003;16428;47.836;35.106;2023-02-21T10:46:42;2.00;2.00;2.00
29460;PMS7003;16428;47.836;35.106;2023-02-21T10:52:22;1.00;1.00;1.00
29460;PMS7003;16428;47.836;35.106;2023-02-21T10:55:23;0.00;0.00;0.00
29460;PMS7003;16428;47.836;35.106;2023-02-21T10:58:07;2.00;2.00;2.00
29460;PMS7003;16428;47.836;35.106;2023-02-21T11:00:38;1.25;1.25;1.00
29460;PMS7003;16428;47.836;35.106;2023-02-21T11:03:20;1.75;1.25;1.25
29460;PMS7003;16428;47.836;35.106;2023-02-21T11:05:56;1.50;0.25;0.25
29460;PMS7003;16428;47.836;35.106;2023-02-21T11:08:41;2.00;2.00;2.00
29460;PMS7003;16428;47.836;35.106;2023-02-21T11:11:10;2.00;2.00;1.75
29460;PMS7003;16428;47.836;35.106;2023-02-21T11:13:38;1.00;1.00;1.00
29460;PMS7003;16428;47.836;35.106;2023-02-21T11:16:15;0.00;0.00;0.00
29460;PMS7003;16428;47.836;35.106;2023-02-21T11:18:46;1.00;1.00;1.00
29460;PMS7003;16428;47.836;35.106;2023-02-21T11:21:32;5.50;3.00;2.00
29460;PMS7003;16428;47.836;35.106;2023-02-21T11:24:01;2.00;1.00;1.00
29460;PMS7003;16428;47.836;35.106;2023-02-21T11:26:50;3.25;3.25;2.50
29460;PMS7003;16428;47.836;35.106;2023-02-21T11:29:20;3.00;1.25;1.00
29460;PMS7003;16428;47.836;35.106;2023-02-21T11:31:52;2.00;2.00;1.25
29460;PMS7003;16428;47.836;35.106;2023-02-21T11:34:21;2.00;2.00;2.00
29460;PMS7003;16428;47.836;35.106;2023-02-21T11:37:00;2.00;2.00;1.75
29460;PMS7003;16428;47.836;35.106;2023-02-21T11:39:33;3.00;3.00;2.75
29460;PMS7003;16428;47.836;35.106;2023-02-21T11:42:02;3.25;3.25;3.00
29460;PMS7003;16428;47.836;35.106;2023-02-21T11:44:48;5.75;3.50;3.25
29460;PMS7003;16428;47.836;35.106;2023-02-21T11:47:34;8.00;8.00;7.50
29460;PMS7003;16428;47.836;35.106;2023-02-21T11:52:37;6.75;6.75;6.00
29460;PMS7003;16428;47.836;35.106;2023-02-21T11:55:13;4.00;4.00;3.75
29460;PMS7003;16428;47.836;35.106;2023-02-21T12:00:42;3.50;2.50;1.50
29460;PMS7003;16428;47.836;35.106;2023-02-21T12:06:04;1.00;1.00;1.00
29460;PMS7003;16428;47.836;35.106;2023-02-21T12:11:31;3.00;1.00;1.00
29460;PMS7003;16428;47.836;35.106;2023-02-21T12:29:54;4.00;2.00;2.00
29460;PMS7003;16428;47.836;35.106;2023-02-21T12:41:37;1.00;1.00;1.00
29460;PMS7003;16428;47.836;35.106;2023-02-21T12:54:43;0.00;0.00;0.00
29460;PMS7003;16428;47.836;35.106;2023-02-21T12:57:21;0.75;0.75;0.00
29460;PMS7003;16428;47.836;35.106;2023-02-21T13:00:03;1.25;1.25;1.25
29460;PMS7003;16428;47.836;35.106;2023-02-21T13:02:49;3.50;1.75;1.75
29460;PMS7003;16428;47.836;35.106;2023-02-21T13:05:32;1.00;0.00;0.00
29460;PMS7003;16428;47.836;35.106;2023-02-21T13:08:20;4.25;1.50;1.50
29460;PMS7003;16428;47.836;35.106;2023-02-21T13:10:58;1.00;0.00;0.00
29460;PMS7003;16428;47.836;35.106;2023-02-21T13:13:31;2.50;1.00;1.00
29460;PMS7003;16428;47.836;35.106;2023-02-21T13:16:01;0.75;0.75;0.75
29460;PMS7003;16428;47.836;35.106;2023-02-21T13:18:38;1.00;1.00;1.00
29460;PMS7003;16428;47.836;35.106;2023-02-21T13:23:45;1.33;1.33;1.00
29460;PMS7003;16428;47.836;35.106;2023-02-21T13:26:27;1.00;1.00;0.00
29460;PMS7003;16428;47.836;35.106;2023-02-21T13:29:00;1.33;0.67;0.67
29460;PMS7003;16428;47.836;35.106;2023-02-21T13:31:37;4.33;1.33;1.33
29460;PMS7003;16428;47.836;35.106;2023-02-21T13:34:09;3.00;0.00;0.00
29460;PMS7003;16428;47.836;35.106;2023-02-21T13:36:41;2.00;2.00;1.00
29460;PMS7003;16428;47.836;35.106;2023-02-21T13:39:12;1.33;1.33;1.00
29460;PMS7003;16428;47.836;35.106;2023-02-21T13:41:53;1.25;1.00;1.00
29460;PMS7003;16428;47.836;35.106;2023-02-21T13:44:29;1.75;1.75;1.00
29460;PMS7003;16428;47.836;35.106;2023-02-21T13:47:07;1.00;1.00;1.00
29460;PMS7003;16428;47.836;35.106;2023-02-21T14:03:09;0.00;0.00;0.00
29460;PMS7003;16428;47.836;35.106;2023-02-21T14:08:25;1.00;1.00;1.00
29460;PMS7003;16428;47.836;35.106;2023-02-21T14:16:36;3.00;0.00;0.00
29460;PMS7003;16428;47.836;35.106;2023-02-21T14:22:10;5.50;5.50;4.00
29460;PMS7003;16428;47.836;35.106;2023-02-21T14:24:45;1.00;1.00;0.50
29460;PMS7003;16428;47.836;35.106;2023-02-21T14:29:44;0.75;0.75;0.75
29460;PMS7003;16428;47.836;35.106;2023-02-21T14:32:48;2.00;2.00;2.00
29460;PMS7003;16428;47.836;35.106;2023-02-21T14:45:40;3.00;3.00;3.00
29460;PMS7003;16428;47.836;35.106;2023-02-21T14:56:34;4.00;4.00;4.00
29460;PMS7003;16428;47.836;35.106;2023-02-21T15:01:42;6.00;3.75;3.75
29460;PMS7003;16428;47.836;35.106;2023-02-21T15:04:22;3.50;3.50;3.25
29460;PMS7003;16428;47.836;35.106;2023-02-21T15:09:41;5.00;5.00;5.00
29460;PMS7003;16428;47.836;35.106;2023-02-21T15:12:12;2.75;2.75;2.00
29460;PMS7003;16428;47.836;35.106;2023-02-21T15:14:46;4.25;4.25;4.00
29460;PMS7003;16428;47.836;35.106;2023-02-21T15:17:20;8.75;7.50;6.00
29460;PMS7003;16428;47.836;35.106;2023-02-21T15:20:03;9.00;9.00;8.00
29460;PMS7003;16428;47.836;35.106;2023-02-21T15:22:42;7.00;7.00;4.00
29460;PMS7003;16428;47.836;35.106;2023-02-21T15:25:13;7.00;7.00;5.50
29460;PMS7003;16428;47.836;35.106;2023-02-21T15:30:15;9.75;8.75;6.75
29460;PMS7003;16428;47.836;35.106;2023-02-21T15:32:44;14.00;10.25;7.75
29460;PMS7003;16428;47.836;35.106;2023-02-21T15:35:24;10.00;10.00;9.25
29460;PMS7003;16428;47.836;35.106;2023-02-21T15:38:01;7.75;6.50;5.00
29460;PMS7003;16428;47.836;35.106;2023-02-21T15:40:35;9.25;7.25;7.00
29460;PMS7003;16428;47.836;35.106;2023-02-21T15:43:30;5.00;5.00;4.00
29460;PMS7003;16428;47.836;35.106;2023-02-21T15:46:05;7.00;5.00;4.00
29460;PMS7003;16428;47.836;35.106;2023-02-21T15:48:36;11.50;8.50;7.00
29460;PMS7003;16428;47.836;35.106;2023-02-21T15:51:05;8.00;8.00;5.50
29460;PMS7003;16428;47.836;35.106;2023-02-21T15:53:35;20.25;17.25;14.00
29460;PMS7003;16428;47.836;35.106;2023-02-21T15:56:17;16.25;16.25;13.00
29460;PMS7003;16428;47.836;35.106;2023-02-21T16:02:05;15.75;15.75;12.00
29460;PMS7003;16428;47.836;35.106;2023-02-21T16:04:36;22.25;20.50;15.50
29460;PMS7003;16428;47.836;35.106;2023-02-21T16:07:06;30.25;26.50;20.75
29460;PMS7003;16428;47.836;35.106;2023-02-21T16:09:42;4.75;4.75;3.25
29460;PMS7003;16428;47.836;35.106;2023-02-21T16:17:41;7.00;7.00;5.00
29460;PMS7003;16428;47.836;35.106;2023-02-21T16:22:47;4.00;4.00;4.00
29460;PMS7003;16428;47.836;35.106;2023-02-21T16:25:34;6.50;4.50;3.25
29460;PMS7003;16428;47.836;35.106;2023-02-21T16:28:05;8.50;3.25;3.00
29460;PMS7003;16428;47.836;35.106;2023-02-21T16:30:38;2.75;2.00;2.00
29460;PMS7003;16428;47.836;35.106;2023-02-21T16:33:08;6.00;3.00;3.00
29460;PMS7003;16428;47.836;35.106;2023-02-21T16:35:40;5.00;3.00;3.00
29460;PMS7003;16428;47.836;35.106;2023-02-21T16:38:13;3.75;3.75;3.25
29460;PMS7003;16428;47.836;35.106;2023-02-21T16:40:42;4.00;4.00;3.75
29460;PMS7003;16428;47.836;35.106;2023-02-21T16:43:18;7.50;4.00;4.00
29460;PMS7003;16428;47.836;35.106;2023-02-21T16:45:51;3.75;3.00;2.00
29460;PMS7003;16428;47.836;35.106;2023-02-21T16:48:22;4.50;4.00;2.25
29460;PMS7003;16428;47.836;35.106;2023-02-21T16:50:54;5.25;3.25;3.00
29460;PMS7003;16428;47.836;35.106;2023-02-21T16:53:22;5.75;3.50;3.00
29460;PMS7003;16428;47.836;35.106;2023-02-21T16:55:49;3.25;3.00;3.00
29460;PMS7003;16428;47.836;35.106;2023-02-21T16:58:19;1.25;1.00;1.00
29460;PMS7003;16428;47.836;35.106;2023-02-21T17:00:57;8.00;6.50;5.50
29460;PMS7003;16428;47.836;35.106;2023-02-21T17:03:27;4.25;2.25;1.00
29460;PMS7003;16428;47.836;35.106;2023-02-21T17:05:55;2.00;2.00;1.00
29460;PMS7003;16428;47.836;35.106;2023-02-21T17:08:24;1.75;1.75;1.75
29460;PMS7003;16428;47.836;35.106;2023-02-21T17:10:57;3.50;3.50;2.00
29460;PMS7003;16428;47.836;35.106;2023-02-21T17:13:26;3.25;2.25;1.50
29460;PMS7003;16428;47.836;35.106;2023-02-21T17:15:53;1.50;1.50;1.00
29460;PMS7003;16428;47.836;35.106;2023-02-21T17:18:21;3.25;1.50;1.50
29460;PMS7003;16428;47.836;35.106;2023-02-21T17:20:48;2.50;2.50;2.00
29460;PMS7003;16428;47.836;35.106;2023-02-21T17:23:17;2.00;2.00;1.75
29460;PMS7003;16428;47.836;35.106;2023-02-21T17:25:45;0.25;0.25;0.00
29460;PMS7003;16428;47.836;35.106;2023-02-21T17:28:12;2.00;2.00;1.00
29460;PMS7003;16428;47.836;35.106;2023-02-21T17:30:40;4.00;1.50;1.00